sensor_id;sensor_type;location;lat;lon;timestamp;P1;durP1;ratioP1;P2;durP2;ratioP2
1412;SDS011;701;52.526;13.408;2023-08-07T00:00:33;4.63;;;1.67;;
1412;SDS011;701;52.526;13.408;2023-08-07T00:02:59;9.95;;;1.75;;
1412;SDS011;701;52.526;13.408;2023-08-07T00:05:24;4.53;;;1.50;;
1412;SDS011;701;52.526;13.408;2023-08-07T00:07:51;7.82;;;1.77;;
1412;SDS011;701;52.526;13.408;2023-08-07T00:10:16;5.63;;;1.83;;
1412;SDS011;701;52.526;13.408;2023-08-07T00:12:42;5.90;;;1.70;;
1412;SDS011;701;52.526;13.408;2023-08-07T00:15:09;5.80;;;1.70;;
1412;SDS011;701;52.526;13.408;2023-08-07T00:17:36;7.57;;;2.10;;
1412;SDS011;701;52.526;13.408;2023-08-07T00:20:03;6.73;;;2.03;;
1412;SDS011;701;52.526;13.408;2023-08-07T00:22:29;6.07;;;2.03;;
1412;SDS011;701;52.526;13.408;2023-08-07T00:24:55;6.32;;;2.10;;
1412;SDS011;701;52.526;13.408;2023-08-07T00:27:21;6.90;;;1.90;;
1412;SDS011;701;52.526;13.408;2023-08-07T00:29:47;6.17;;;2.13;;
1412;SDS011;701;52.526;13.408;2023-08-07T00:32:12;5.30;;;2.08;;
1412;SDS011;701;52.526;13.408;2023-08-07T00:34:40;7.80;;;2.07;;
1412;SDS011;701;52.526;13.408;2023-08-07T00:37:05;5.90;;;2.28;;
1412;SDS011;701;52.526;13.408;2023-08-07T00:39:32;5.97;;;2.13;;
1412;SDS011;701;52.526;13.408;2023-08-07T00:41:57;6.00;;;2.00;;
1412;SDS011;701;52.526;13.408;2023-08-07T00:44:23;5.45;;;2.15;;
1412;SDS011;701;52.526;13.408;2023-08-07T00:46:49;7.43;;;2.50;;
1412;SDS011;701;52.526;13.408;2023-08-07T00:49:15;6.57;;;2.30;;
1412;SDS011;701;52.526;13.408;2023-08-07T00:51:43;7.35;;;2.47;;
1412;SDS011;701;52.526;13.408;2023-08-07T00:54:09;6.80;;;2.40;;
1412;SDS011;701;52.526;13.408;2023-08-07T00:56:37;6.05;;;2.22;;
1412;SDS011;701;52.526;13.408;2023-08-07T00:59:04;6.23;;;2.43;;
1412;SDS011;701;52.526;13.408;2023-08-07T01:01:30;5.57;;;2.45;;
1412;SDS011;701;52.526;13.408;2023-08-07T01:03:56;11.70;;;2.38;;
1412;SDS011;701;52.526;13.408;2023-08-07T01:06:21;7.53;;;2.20;;
1412;SDS011;701;52.526;13.408;2023-08-07T01:08:47;6.57;;;2.55;;
1412;SDS011;701;52.526;13.408;2023-08-07T01:14:16;6.40;;;2.20;;
1412;SDS011;701;52.526;13.408;2023-08-07T01:19:29;6.88;;;2.40;;
1412;SDS011;701;52.526;13.408;2023-08-07T01:22:11;7.78;;;2.05;;
1412;SDS011;701;52.526;13.408;2023-08-07T01:24:42;5.03;;;2.08;;
1412;SDS011;701;52.526;13.408;2023-08-07T01:27:44;4.77;;;1.90;;
1412;SDS011;701;52.526;13.408;2023-08-07T01:30:10;5.57;;;2.00;;
1412;SDS011;701;52.526;13.408;2023-08-07T01:35:51;6.43;;;2.40;;
1412;SDS011;701;52.526;13.408;2023-08-07T01:38:21;6.93;;;2.10;;
1412;SDS011;701;52.526;13.408;2023-08-07T01:40:49;6.87;;;1.90;;
1412;SDS011;701;52.526;13.408;2023-08-07T01:43:18;7.45;;;2.22;;
1412;SDS011;701;52.526;13.408;2023-08-07T01:45:44;5.35;;;2.28;;
1412;SDS011;701;52.526;13.408;2023-08-07T01:48:11;8.82;;;2.10;;
1412;SDS011;701;52.526;13.408;2023-08-07T01:50:37;8.10;;;2.67;;
1412;SDS011;701;52.526;13.408;2023-08-07T01:53:04;7.78;;;2.03;;
1412;SDS011;701;52.526;13.408;2023-08-07T01:55:30;9.35;;;2.22;;
1412;SDS011;701;52.526;13.408;2023-08-07T01:57:56;6.22;;;2.03;;
1412;SDS011;701;52.526;13.408;2023-08-07T02:00:22;5.57;;;2.13;;
1412;SDS011;701;52.526;13.408;2023-08-07T02:02:48;12.63;;;2.07;;
1412;SDS011;701;52.526;13.408;2023-08-07T02:05:14;7.22;;;1.83;;
1412;SDS011;701;52.526;13.408;2023-08-07T02:07:40;7.63;;;2.20;;
1412;SDS011;701;52.526;13.408;2023-08-07T02:10:06;6.68;;;2.22;;
1412;SDS011;701;52.526;13.408;2023-08-07T02:12:33;7.83;;;2.10;;
1412;SDS011;701;52.526;13.408;2023-08-07T02:14:59;6.25;;;2.10;;
1412;SDS011;701;52.526;13.408;2023-08-07T02:17:25;6.47;;;2.38;;
1412;SDS011;701;52.526;13.408;2023-08-07T02:19:58;7.97;;;2.38;;
1412;SDS011;701;52.526;13.408;2023-08-07T02:22:24;7.80;;;2.57;;
1412;SDS011;701;52.526;13.408;2023-08-07T02:24:50;7.07;;;2.40;;
1412;SDS011;701;52.526;13.408;2023-08-07T02:27:16;8.68;;;2.60;;
1412;SDS011;701;52.526;13.408;2023-08-07T02:29:42;8.85;;;2.63;;
1412;SDS011;701;52.526;13.408;2023-08-07T02:32:07;7.53;;;2.60;;
1412;SDS011;701;52.526;13.408;2023-08-07T02:34:33;6.28;;;2.45;;
1412;SDS011;701;52.526;13.408;2023-08-07T02:36:59;7.43;;;2.70;;
1412;SDS011;701;52.526;13.408;2023-08-07T02:39:25;9.75;;;2.85;;
1412;SDS011;701;52.526;13.408;2023-08-07T02:41:51;9.03;;;2.87;;
1412;SDS011;701;52.526;13.408;2023-08-07T02:44:16;5.93;;;2.80;;
1412;SDS011;701;52.526;13.408;2023-08-07T02:46:43;7.03;;;2.92;;
1412;SDS011;701;52.526;13.408;2023-08-07T02:49:08;8.63;;;2.97;;
1412;SDS011;701;52.526;13.408;2023-08-07T02:51:34;6.97;;;2.80;;
1412;SDS011;701;52.526;13.408;2023-08-07T02:54:00;8.13;;;3.20;;
1412;SDS011;701;52.526;13.408;2023-08-07T02:56:26;7.65;;;2.95;;
1412;SDS011;701;52.526;13.408;2023-08-07T02:58:52;6.97;;;2.90;;
1412;SDS011;701;52.526;13.408;2023-08-07T03:01:17;8.73;;;2.80;;
1412;SDS011;701;52.526;13.408;2023-08-07T03:03:45;8.53;;;3.30;;
1412;SDS011;701;52.526;13.408;2023-08-07T03:06:10;7.38;;;3.13;;
1412;SDS011;701;52.526;13.408;2023-08-07T03:08:36;8.68;;;3.17;;
1412;SDS011;701;52.526;13.408;2023-08-07T03:11:02;7.17;;;3.20;;
1412;SDS011;701;52.526;13.408;2023-08-07T03:13:28;9.40;;;3.25;;
1412;SDS011;701;52.526;13.408;2023-08-07T03:16:00;8.57;;;2.80;;
1412;SDS011;701;52.526;13.408;2023-08-07T03:18:26;8.43;;;2.90;;
1412;SDS011;701;52.526;13.408;2023-08-07T03:20:53;7.80;;;2.92;;
1412;SDS011;701;52.526;13.408;2023-08-07T03:23:20;9.68;;;3.30;;
1412;SDS011;701;52.526;13.408;2023-08-07T03:25:45;9.93;;;2.97;;
1412;SDS011;701;52.526;13.408;2023-08-07T03:28:11;7.90;;;3.22;;
1412;SDS011;701;52.526;13.408;2023-08-07T03:30:37;8.23;;;3.10;;
1412;SDS011;701;52.526;13.408;2023-08-07T03:33:04;11.70;;;3.38;;
1412;SDS011;701;52.526;13.408;2023-08-07T03:35:30;8.43;;;3.53;;
1412;SDS011;701;52.526;13.408;2023-08-07T03:37:56;7.22;;;3.10;;
1412;SDS011;701;52.526;13.408;2023-08-07T03:40:21;10.23;;;3.30;;
1412;SDS011;701;52.526;13.408;2023-08-07T03:42:47;8.60;;;3.50;;
1412;SDS011;701;52.526;13.408;2023-08-07T03:45:13;7.43;;;3.00;;
1412;SDS011;701;52.526;13.408;2023-08-07T03:47:39;9.43;;;3.47;;
1412;SDS011;701;52.526;13.408;2023-08-07T03:50:05;16.55;;;3.58;;
1412;SDS011;701;52.526;13.408;2023-08-07T03:52:31;9.20;;;3.38;;
1412;SDS011;701;52.526;13.408;2023-08-07T03:54:58;8.85;;;3.50;;
1412;SDS011;701;52.526;13.408;2023-08-07T03:57:24;10.60;;;3.80;;
1412;SDS011;701;52.526;13.408;2023-08-07T03:59:50;8.95;;;4.25;;
1412;SDS011;701;52.526;13.408;2023-08-07T04:02:16;8.30;;;3.53;;
1412;SDS011;701;52.526;13.408;2023-08-07T04:04:42;7.50;;;3.40;;
1412;SDS011;701;52.526;13.408;2023-08-07T04:07:07;8.90;;;3.70;;
1412;SDS011;701;52.526;13.408;2023-08-07T04:09:33;7.78;;;3.53;;
1412;SDS011;701;52.526;13.408;2023-08-07T04:11:59;8.40;;;3.60;;
1412;SDS011;701;52.526;13.408;2023-08-07T04:14:25;9.10;;;3.30;;
1412;SDS011;701;52.526;13.408;2023-08-07T04:16:51;10.48;;;3.40;;
1412;SDS011;701;52.526;13.408;2023-08-07T04:19:17;9.43;;;3.50;;
1412;SDS011;701;52.526;13.408;2023-08-07T04:21:42;9.45;;;3.90;;
1412;SDS011;701;52.526;13.408;2023-08-07T04:24:08;8.23;;;3.47;;
1412;SDS011;701;52.526;13.408;2023-08-07T04:26:39;7.88;;;3.47;;
1412;SDS011;701;52.526;13.408;2023-08-07T04:29:05;11.30;;;3.35;;
1412;SDS011;701;52.526;13.408;2023-08-07T04:31:31;8.75;;;3.38;;
1412;SDS011;701;52.526;13.408;2023-08-07T04:33:58;8.35;;;3.33;;
1412;SDS011;701;52.526;13.408;2023-08-07T04:36:24;10.73;;;3.30;;
1412;SDS011;701;52.526;13.408;2023-08-07T04:38:50;7.07;;;3.17;;
1412;SDS011;701;52.526;13.408;2023-08-07T04:41:16;8.48;;;3.20;;
1412;SDS011;701;52.526;13.408;2023-08-07T04:43:41;7.47;;;2.97;;
1412;SDS011;701;52.526;13.408;2023-08-07T04:46:10;6.63;;;2.80;;
1412;SDS011;701;52.526;13.408;2023-08-07T04:48:37;7.35;;;2.85;;
1412;SDS011;701;52.526;13.408;2023-08-07T04:51:02;6.80;;;2.80;;
1412;SDS011;701;52.526;13.408;2023-08-07T04:53:28;8.95;;;2.88;;
1412;SDS011;701;52.526;13.408;2023-08-07T04:55:54;10.40;;;2.92;;
1412;SDS011;701;52.526;13.408;2023-08-07T04:58:20;8.03;;;2.80;;
1412;SDS011;701;52.526;13.408;2023-08-07T05:00:45;9.93;;;3.05;;
1412;SDS011;701;52.526;13.408;2023-08-07T05:03:12;7.83;;;2.50;;
1412;SDS011;701;52.526;13.408;2023-08-07T05:05:38;8.90;;;2.67;;
1412;SDS011;701;52.526;13.408;2023-08-07T05:08:04;6.18;;;2.58;;
1412;SDS011;701;52.526;13.408;2023-08-07T05:10:29;6.47;;;3.07;;
1412;SDS011;701;52.526;13.408;2023-08-07T05:12:55;5.90;;;2.30;;
1412;SDS011;701;52.526;13.408;2023-08-07T05:15:24;6.47;;;2.50;;
1412;SDS011;701;52.526;13.408;2023-08-07T05:17:51;7.35;;;2.80;;
1412;SDS011;701;52.526;13.408;2023-08-07T05:20:17;6.72;;;2.03;;
1412;SDS011;701;52.526;13.408;2023-08-07T05:22:43;5.60;;;2.42;;
1412;SDS011;701;52.526;13.408;2023-08-07T05:25:09;6.20;;;2.10;;
1412;SDS011;701;52.526;13.408;2023-08-07T05:27:37;5.10;;;2.00;;
1412;SDS011;701;52.526;13.408;2023-08-07T05:30:03;6.72;;;2.10;;
1412;SDS011;701;52.526;13.408;2023-08-07T05:32:29;9.95;;;2.10;;
1412;SDS011;701;52.526;13.408;2023-08-07T05:34:55;7.57;;;2.37;;
1412;SDS011;701;52.526;13.408;2023-08-07T05:37:21;6.18;;;2.55;;
1412;SDS011;701;52.526;13.408;2023-08-07T05:39:47;8.53;;;2.50;;
1412;SDS011;701;52.526;13.408;2023-08-07T05:42:12;5.90;;;2.50;;
1412;SDS011;701;52.526;13.408;2023-08-07T05:44:38;8.23;;;2.15;;
1412;SDS011;701;52.526;13.408;2023-08-07T05:47:04;6.17;;;2.07;;
1412;SDS011;701;52.526;13.408;2023-08-07T05:49:31;6.95;;;2.40;;
1412;SDS011;701;52.526;13.408;2023-08-07T05:51:57;6.40;;;2.30;;
1412;SDS011;701;52.526;13.408;2023-08-07T05:54:22;8.85;;;2.60;;
1412;SDS011;701;52.526;13.408;2023-08-07T05:56:48;6.10;;;1.98;;
1412;SDS011;701;52.526;13.408;2023-08-07T05:59:14;6.60;;;2.30;;
1412;SDS011;701;52.526;13.408;2023-08-07T06:01:40;9.40;;;1.95;;
1412;SDS011;701;52.526;13.408;2023-08-07T06:04:06;7.78;;;3.20;;
1412;SDS011;701;52.526;13.408;2023-08-07T06:06:32;10.73;;;3.20;;
1412;SDS011;701;52.526;13.408;2023-08-07T06:09:00;5.30;;;2.10;;
1412;SDS011;701;52.526;13.408;2023-08-07T06:11:27;7.53;;;2.40;;
1412;SDS011;701;52.526;13.408;2023-08-07T06:13:53;7.13;;;2.45;;
1412;SDS011;701;52.526;13.408;2023-08-07T06:16:19;8.87;;;2.30;;
1412;SDS011;701;52.526;13.408;2023-08-07T06:18:45;5.70;;;1.92;;
1412;SDS011;701;52.526;13.408;2023-08-07T06:21:11;6.15;;;1.90;;
1412;SDS011;701;52.526;13.408;2023-08-07T06:23:36;5.60;;;1.80;;
1412;SDS011;701;52.526;13.408;2023-08-07T06:26:02;6.97;;;1.90;;
1412;SDS011;701;52.526;13.408;2023-08-07T06:28:32;8.23;;;1.87;;
1412;SDS011;701;52.526;13.408;2023-08-07T06:31:06;4.80;;;1.75;;
1412;SDS011;701;52.526;13.408;2023-08-07T06:33:33;5.53;;;2.13;;
1412;SDS011;701;52.526;13.408;2023-08-07T06:35:59;7.97;;;1.75;;
1412;SDS011;701;52.526;13.408;2023-08-07T06:38:26;5.60;;;2.13;;
1412;SDS011;701;52.526;13.408;2023-08-07T06:40:51;11.00;;;2.13;;
1412;SDS011;701;52.526;13.408;2023-08-07T06:43:17;6.15;;;2.13;;
1412;SDS011;701;52.526;13.408;2023-08-07T06:45:43;8.10;;;1.97;;
1412;SDS011;701;52.526;13.408;2023-08-07T06:48:12;5.97;;;1.90;;
1412;SDS011;701;52.526;13.408;2023-08-07T06:50:37;5.05;;;1.95;;
1412;SDS011;701;52.526;13.408;2023-08-07T06:53:03;7.13;;;2.40;;
1412;SDS011;701;52.526;13.408;2023-08-07T06:55:29;6.40;;;1.70;;
1412;SDS011;701;52.526;13.408;2023-08-07T06:57:55;4.87;;;1.40;;
1412;SDS011;701;52.526;13.408;2023-08-07T07:00:20;5.90;;;1.55;;
1412;SDS011;701;52.526;13.408;2023-08-07T07:02:46;5.10;;;1.80;;
1412;SDS011;701;52.526;13.408;2023-08-07T07:05:12;7.20;;;1.83;;
1412;SDS011;701;52.526;13.408;2023-08-07T07:07:38;8.75;;;4.13;;
1412;SDS011;701;52.526;13.408;2023-08-07T07:10:04;5.47;;;2.00;;
1412;SDS011;701;52.526;13.408;2023-08-07T07:12:30;4.90;;;1.70;;
1412;SDS011;701;52.526;13.408;2023-08-07T07:14:56;4.68;;;1.42;;
1412;SDS011;701;52.526;13.408;2023-08-07T07:17:21;7.13;;;1.60;;
1412;SDS011;701;52.526;13.408;2023-08-07T07:19:47;5.80;;;1.40;;
1412;SDS011;701;52.526;13.408;2023-08-07T07:22:13;6.57;;;1.50;;
1412;SDS011;701;52.526;13.408;2023-08-07T07:24:38;7.25;;;1.55;;
1412;SDS011;701;52.526;13.408;2023-08-07T07:27:04;4.87;;;1.50;;
1412;SDS011;701;52.526;13.408;2023-08-07T07:29:30;6.93;;;1.27;;
1412;SDS011;701;52.526;13.408;2023-08-07T07:31:56;8.70;;;1.67;;
1412;SDS011;701;52.526;13.408;2023-08-07T07:34:22;5.20;;;1.50;;
1412;SDS011;701;52.526;13.408;2023-08-07T07:36:47;4.43;;;1.33;;
1412;SDS011;701;52.526;13.408;2023-08-07T07:39:14;5.22;;;1.60;;
1412;SDS011;701;52.526;13.408;2023-08-07T07:41:40;4.80;;;1.53;;
1412;SDS011;701;52.526;13.408;2023-08-07T07:44:06;4.43;;;1.48;;
1412;SDS011;701;52.526;13.408;2023-08-07T07:46:32;4.80;;;1.40;;
1412;SDS011;701;52.526;13.408;2023-08-07T07:48:58;5.97;;;1.40;;
1412;SDS011;701;52.526;13.408;2023-08-07T07:51:24;6.25;;;1.50;;
1412;SDS011;701;52.526;13.408;2023-08-07T07:53:50;5.68;;;1.63;;
1412;SDS011;701;52.526;13.408;2023-08-07T07:56:16;7.27;;;1.83;;
1412;SDS011;701;52.526;13.408;2023-08-07T07:58:42;4.65;;;1.70;;
1412;SDS011;701;52.526;13.408;2023-08-07T08:01:09;7.20;;;1.65;;
1412;SDS011;701;52.526;13.408;2023-08-07T08:03:34;9.43;;;1.50;;
1412;SDS011;701;52.526;13.408;2023-08-07T08:06:00;5.53;;;1.70;;
1412;SDS011;701;52.526;13.408;2023-08-07T08:08:26;6.07;;;1.53;;
1412;SDS011;701;52.526;13.408;2023-08-07T08:10:52;5.10;;;1.55;;
1412;SDS011;701;52.526;13.408;2023-08-07T08:13:17;5.33;;;1.37;;
1412;SDS011;701;52.526;13.408;2023-08-07T08:15:44;5.68;;;1.40;;
1412;SDS011;701;52.526;13.408;2023-08-07T08:18:10;5.97;;;1.65;;
1412;SDS011;701;52.526;13.408;2023-08-07T08:20:37;6.07;;;1.70;;
1412;SDS011;701;52.526;13.408;2023-08-07T08:23:03;7.03;;;1.45;;
1412;SDS011;701;52.526;13.408;2023-08-07T08:25:30;6.07;;;1.63;;
1412;SDS011;701;52.526;13.408;2023-08-07T08:27:59;6.93;;;1.40;;
1412;SDS011;701;52.526;13.408;2023-08-07T08:30:25;4.93;;;1.40;;
1412;SDS011;701;52.526;13.408;2023-08-07T08:32:51;7.68;;;1.60;;
1412;SDS011;701;52.526;13.408;2023-08-07T08:35:17;4.13;;;1.53;;
1412;SDS011;701;52.526;13.408;2023-08-07T08:37:43;5.28;;;1.60;;
1412;SDS011;701;52.526;13.408;2023-08-07T08:40:09;6.47;;;1.50;;
1412;SDS011;701;52.526;13.408;2023-08-07T08:42:40;5.60;;;1.70;;
1412;SDS011;701;52.526;13.408;2023-08-07T08:45:06;5.38;;;1.80;;
1412;SDS011;701;52.526;13.408;2023-08-07T08:47:35;8.13;;;1.75;;
1412;SDS011;701;52.526;13.408;2023-08-07T08:50:03;6.45;;;1.80;;
1412;SDS011;701;52.526;13.408;2023-08-07T08:52:32;5.73;;;1.80;;
1412;SDS011;701;52.526;13.408;2023-08-07T08:54:58;6.43;;;1.35;;
1412;SDS011;701;52.526;13.408;2023-08-07T08:57:25;6.60;;;1.50;;
1412;SDS011;701;52.526;13.408;2023-08-07T08:59:51;5.35;;;1.50;;
1412;SDS011;701;52.526;13.408;2023-08-07T09:02:18;4.05;;;1.30;;
1412;SDS011;701;52.526;13.408;2023-08-07T09:04:44;6.10;;;1.60;;
1412;SDS011;701;52.526;13.408;2023-08-07T09:07:10;5.57;;;1.70;;
1412;SDS011;701;52.526;13.408;2023-08-07T09:09:39;5.15;;;1.50;;
1412;SDS011;701;52.526;13.408;2023-08-07T09:12:16;6.15;;;1.45;;
1412;SDS011;701;52.526;13.408;2023-08-07T09:14:50;4.83;;;1.40;;
1412;SDS011;701;52.526;13.408;2023-08-07T09:17:22;4.15;;;1.30;;
1412;SDS011;701;52.526;13.408;2023-08-07T09:19:50;4.45;;;1.40;;
1412;SDS011;701;52.526;13.408;2023-08-07T09:22:17;4.68;;;1.48;;
1412;SDS011;701;52.526;13.408;2023-08-07T09:24:43;5.03;;;1.80;;
1412;SDS011;701;52.526;13.408;2023-08-07T09:27:09;6.40;;;1.80;;
1412;SDS011;701;52.526;13.408;2023-08-07T09:29:35;6.25;;;1.52;;
1412;SDS011;701;52.526;13.408;2023-08-07T09:32:11;8.10;;;2.00;;
1412;SDS011;701;52.526;13.408;2023-08-07T09:34:41;4.85;;;1.35;;
1412;SDS011;701;52.526;13.408;2023-08-07T09:37:08;7.68;;;1.67;;
1412;SDS011;701;52.526;13.408;2023-08-07T09:39:37;5.90;;;2.00;;
1412;SDS011;701;52.526;13.408;2023-08-07T09:42:03;5.23;;;1.50;;
1412;SDS011;701;52.526;13.408;2023-08-07T09:44:35;5.28;;;1.55;;
1412;SDS011;701;52.526;13.408;2023-08-07T09:47:10;5.65;;;1.85;;
1412;SDS011;701;52.526;13.408;2023-08-07T09:49:40;8.20;;;1.60;;
1412;SDS011;701;52.526;13.408;2023-08-07T09:52:07;4.43;;;1.30;;
1412;SDS011;701;52.526;13.408;2023-08-07T09:54:34;9.67;;;1.50;;
1412;SDS011;701;52.526;13.408;2023-08-07T09:57:03;6.90;;;1.60;;
1412;SDS011;701;52.526;13.408;2023-08-07T09:59:31;4.63;;;1.45;;
1412;SDS011;701;52.526;13.408;2023-08-07T10:01:57;4.95;;;1.40;;
1412;SDS011;701;52.526;13.408;2023-08-07T10:04:27;7.47;;;1.77;;
1412;SDS011;701;52.526;13.408;2023-08-07T10:06:53;5.27;;;1.53;;
1412;SDS011;701;52.526;13.408;2023-08-07T10:09:19;4.50;;;1.27;;
1412;SDS011;701;52.526;13.408;2023-08-07T10:11:46;4.30;;;1.23;;
1412;SDS011;701;52.526;13.408;2023-08-07T10:14:13;5.78;;;1.50;;
1412;SDS011;701;52.526;13.408;2023-08-07T10:16:40;7.30;;;1.40;;
1412;SDS011;701;52.526;13.408;2023-08-07T10:19:09;4.80;;;1.40;;
1412;SDS011;701;52.526;13.408;2023-08-07T10:21:35;6.40;;;3.33;;
1412;SDS011;701;52.526;13.408;2023-08-07T10:24:04;7.30;;;1.30;;
1412;SDS011;701;52.526;13.408;2023-08-07T10:26:35;4.80;;;1.40;;
1412;SDS011;701;52.526;13.408;2023-08-07T10:29:07;8.90;;;1.30;;
1412;SDS011;701;52.526;13.408;2023-08-07T10:31:35;6.68;;;1.50;;
1412;SDS011;701;52.526;13.408;2023-08-07T10:34:03;5.20;;;1.40;;
1412;SDS011;701;52.526;13.408;2023-08-07T10:36:33;4.63;;;1.27;;
1412;SDS011;701;52.526;13.408;2023-08-07T10:39:13;5.95;;;1.60;;
1412;SDS011;701;52.526;13.408;2023-08-07T10:41:42;4.63;;;1.13;;
1412;SDS011;701;52.526;13.408;2023-08-07T10:44:18;4.82;;;1.35;;
1412;SDS011;701;52.526;13.408;2023-08-07T10:46:54;6.80;;;1.30;;
1412;SDS011;701;52.526;13.408;2023-08-07T10:49:38;6.13;;;1.30;;
1412;SDS011;701;52.526;13.408;2023-08-07T10:52:09;4.55;;;1.40;;
1412;SDS011;701;52.526;13.408;2023-08-07T10:54:38;6.00;;;1.30;;
1412;SDS011;701;52.526;13.408;2023-08-07T10:57:11;4.10;;;1.10;;
1412;SDS011;701;52.526;13.408;2023-08-07T11:02:24;4.28;;;1.00;;
1412;SDS011;701;52.526;13.408;2023-08-07T11:04:52;5.10;;;1.40;;
1412;SDS011;701;52.526;13.408;2023-08-07T11:07:24;4.87;;;1.40;;
1412;SDS011;701;52.526;13.408;2023-08-07T11:09:54;5.22;;;1.30;;
1412;SDS011;701;52.526;13.408;2023-08-07T11:12:28;6.47;;;1.40;;
1412;SDS011;701;52.526;13.408;2023-08-07T11:14:55;5.63;;;1.30;;
1412;SDS011;701;52.526;13.408;2023-08-07T11:17:24;6.07;;;1.60;;
1412;SDS011;701;52.526;13.408;2023-08-07T11:19:51;5.93;;;1.50;;
1412;SDS011;701;52.526;13.408;2023-08-07T11:22:16;6.05;;;1.20;;
1412;SDS011;701;52.526;13.408;2023-08-07T11:24:42;6.40;;;1.30;;
1412;SDS011;701;52.526;13.408;2023-08-07T11:27:08;8.75;;;1.90;;
1412;SDS011;701;52.526;13.408;2023-08-07T11:29:34;6.90;;;1.90;;
1412;SDS011;701;52.526;13.408;2023-08-07T11:32:00;6.20;;;1.60;;
1412;SDS011;701;52.526;13.408;2023-08-07T11:34:25;7.85;;;1.83;;
1412;SDS011;701;52.526;13.408;2023-08-07T11:36:51;8.77;;;2.70;;
1412;SDS011;701;52.526;13.408;2023-08-07T11:39:20;7.97;;;2.90;;
1412;SDS011;701;52.526;13.408;2023-08-07T11:41:46;5.13;;;1.77;;
1412;SDS011;701;52.526;13.408;2023-08-07T11:44:12;7.60;;;2.35;;
1412;SDS011;701;52.526;13.408;2023-08-07T11:46:38;9.30;;;1.85;;
1412;SDS011;701;52.526;13.408;2023-08-07T11:49:04;8.07;;;2.07;;
1412;SDS011;701;52.526;13.408;2023-08-07T11:51:30;7.78;;;1.65;;
1412;SDS011;701;52.526;13.408;2023-08-07T11:53:55;6.30;;;1.90;;
1412;SDS011;701;52.526;13.408;2023-08-07T11:56:24;6.95;;;1.92;;
1412;SDS011;701;52.526;13.408;2023-08-07T11:58:50;6.73;;;1.70;;
1412;SDS011;701;52.526;13.408;2023-08-07T12:01:18;4.70;;;1.63;;
1412;SDS011;701;52.526;13.408;2023-08-07T12:03:52;5.03;;;1.60;;
1412;SDS011;701;52.526;13.408;2023-08-07T12:06:18;6.88;;;1.95;;
1412;SDS011;701;52.526;13.408;2023-08-07T12:08:44;6.77;;;2.00;;
1412;SDS011;701;52.526;13.408;2023-08-07T12:11:11;6.32;;;1.55;;
1412;SDS011;701;52.526;13.408;2023-08-07T12:13:38;4.65;;;1.45;;
1412;SDS011;701;52.526;13.408;2023-08-07T12:16:06;5.83;;;1.60;;
1412;SDS011;701;52.526;13.408;2023-08-07T12:18:32;7.93;;;1.92;;
1412;SDS011;701;52.526;13.408;2023-08-07T12:21:02;9.57;;;1.80;;
1412;SDS011;701;52.526;13.408;2023-08-07T12:23:32;6.60;;;1.70;;
1412;SDS011;701;52.526;13.408;2023-08-07T12:25:58;9.10;;;1.70;;
1412;SDS011;701;52.526;13.408;2023-08-07T12:28:24;5.43;;;1.45;;
1412;SDS011;701;52.526;13.408;2023-08-07T12:30:51;5.68;;;1.40;;
1412;SDS011;701;52.526;13.408;2023-08-07T12:33:17;6.47;;;1.48;;
1412;SDS011;701;52.526;13.408;2023-08-07T12:35:43;4.60;;;1.10;;
1412;SDS011;701;52.526;13.408;2023-08-07T12:38:09;6.60;;;1.47;;
1412;SDS011;701;52.526;13.408;2023-08-07T12:40:36;4.28;;;1.23;;
1412;SDS011;701;52.526;13.408;2023-08-07T12:43:02;6.82;;;1.50;;
1412;SDS011;701;52.526;13.408;2023-08-07T12:45:29;5.97;;;1.70;;
1412;SDS011;701;52.526;13.408;2023-08-07T12:47:56;6.95;;;1.40;;
1412;SDS011;701;52.526;13.408;2023-08-07T12:50:21;8.77;;;2.57;;
1412;SDS011;701;52.526;13.408;2023-08-07T12:52:47;6.78;;;1.52;;
1412;SDS011;701;52.526;13.408;2023-08-07T12:55:13;7.67;;;1.73;;
1412;SDS011;701;52.526;13.408;2023-08-07T12:57:42;8.63;;;1.60;;
1412;SDS011;701;52.526;13.408;2023-08-07T13:00:11;7.38;;;1.50;;
1412;SDS011;701;52.526;13.408;2023-08-07T13:02:43;10.70;;;1.73;;
1412;SDS011;701;52.526;13.408;2023-08-07T13:05:11;6.00;;;1.50;;
1412;SDS011;701;52.526;13.408;2023-08-07T13:07:37;6.38;;;1.38;;
1412;SDS011;701;52.526;13.408;2023-08-07T13:10:04;6.55;;;1.73;;
1412;SDS011;701;52.526;13.408;2023-08-07T13:12:35;9.55;;;1.80;;
1412;SDS011;701;52.526;13.408;2023-08-07T13:15:06;6.28;;;1.60;;
1412;SDS011;701;52.526;13.408;2023-08-07T13:17:36;5.93;;;1.50;;
1412;SDS011;701;52.526;13.408;2023-08-07T13:20:02;8.32;;;1.77;;
1412;SDS011;701;52.526;13.408;2023-08-07T13:22:36;8.88;;;1.30;;
1412;SDS011;701;52.526;13.408;2023-08-07T13:25:03;6.25;;;1.40;;
1412;SDS011;701;52.526;13.408;2023-08-07T13:27:30;5.78;;;1.30;;
1412;SDS011;701;52.526;13.408;2023-08-07T13:29:58;7.47;;;1.60;;
1412;SDS011;701;52.526;13.408;2023-08-07T13:32:24;10.65;;;1.40;;
1412;SDS011;701;52.526;13.408;2023-08-07T13:34:51;5.63;;;1.00;;
1412;SDS011;701;52.526;13.408;2023-08-07T13:37:16;6.00;;;1.50;;
1412;SDS011;701;52.526;13.408;2023-08-07T13:39:42;11.50;;;1.60;;
1412;SDS011;701;52.526;13.408;2023-08-07T13:42:08;11.43;;;1.60;;
1412;SDS011;701;52.526;13.408;2023-08-07T13:44:35;8.53;;;1.93;;
1412;SDS011;701;52.526;13.408;2023-08-07T13:47:05;10.20;;;1.33;;
1412;SDS011;701;52.526;13.408;2023-08-07T13:49:32;6.80;;;1.52;;
1412;SDS011;701;52.526;13.408;2023-08-07T13:51:57;8.80;;;1.48;;
1412;SDS011;701;52.526;13.408;2023-08-07T13:54:23;5.17;;;1.33;;
1412;SDS011;701;52.526;13.408;2023-08-07T13:56:49;7.68;;;1.40;;
1412;SDS011;701;52.526;13.408;2023-08-07T13:59:15;9.05;;;1.55;;
1412;SDS011;701;52.526;13.408;2023-08-07T14:01:41;6.88;;;1.63;;
1412;SDS011;701;52.526;13.408;2023-08-07T14:04:07;7.70;;;1.70;;
1412;SDS011;701;52.526;13.408;2023-08-07T14:06:33;7.97;;;1.63;;
1412;SDS011;701;52.526;13.408;2023-08-07T14:08:59;9.80;;;1.60;;
1412;SDS011;701;52.526;13.408;2023-08-07T14:11:25;9.67;;;2.87;;
1412;SDS011;701;52.526;13.408;2023-08-07T14:13:55;6.78;;;1.90;;
1412;SDS011;701;52.526;13.408;2023-08-07T14:16:24;9.30;;;1.58;;
1412;SDS011;701;52.526;13.408;2023-08-07T14:18:50;9.02;;;1.65;;
1412;SDS011;701;52.526;13.408;2023-08-07T14:21:16;8.70;;;1.40;;
1412;SDS011;701;52.526;13.408;2023-08-07T14:23:42;8.23;;;1.60;;
1412;SDS011;701;52.526;13.408;2023-08-07T14:26:10;9.30;;;1.80;;
1412;SDS011;701;52.526;13.408;2023-08-07T14:28:39;6.53;;;1.57;;
1412;SDS011;701;52.526;13.408;2023-08-07T14:31:06;7.80;;;1.80;;
1412;SDS011;701;52.526;13.408;2023-08-07T14:33:33;7.90;;;1.45;;
1412;SDS011;701;52.526;13.408;2023-08-07T14:35:58;8.93;;;2.00;;
1412;SDS011;701;52.526;13.408;2023-08-07T14:38:25;6.63;;;1.60;;
1412;SDS011;701;52.526;13.408;2023-08-07T14:40:51;9.48;;;1.50;;
1412;SDS011;701;52.526;13.408;2023-08-07T14:43:17;11.03;;;1.50;;
1412;SDS011;701;52.526;13.408;2023-08-07T14:45:43;7.93;;;1.85;;
1412;SDS011;701;52.526;13.408;2023-08-07T14:48:08;6.47;;;1.55;;
1412;SDS011;701;52.526;13.408;2023-08-07T14:50:34;7.50;;;1.27;;
1412;SDS011;701;52.526;13.408;2023-08-07T14:53:00;14.90;;;2.05;;
1412;SDS011;701;52.526;13.408;2023-08-07T14:55:26;8.03;;;1.60;;
1412;SDS011;701;52.526;13.408;2023-08-07T14:57:51;7.30;;;1.48;;
1412;SDS011;701;52.526;13.408;2023-08-07T15:00:17;6.60;;;1.60;;
1412;SDS011;701;52.526;13.408;2023-08-07T15:02:45;8.32;;;1.60;;
1412;SDS011;701;52.526;13.408;2023-08-07T15:05:11;7.88;;;2.17;;
1412;SDS011;701;52.526;13.408;2023-08-07T15:07:36;8.55;;;1.42;;
1412;SDS011;701;52.526;13.408;2023-08-07T15:10:02;8.07;;;1.57;;
1412;SDS011;701;52.526;13.408;2023-08-07T15:12:28;6.53;;;1.50;;
1412;SDS011;701;52.526;13.408;2023-08-07T15:14:54;6.60;;;2.23;;
1412;SDS011;701;52.526;13.408;2023-08-07T15:17:20;7.82;;;1.55;;
1412;SDS011;701;52.526;13.408;2023-08-07T15:19:45;6.37;;;1.47;;
1412;SDS011;701;52.526;13.408;2023-08-07T15:22:12;9.13;;;1.60;;
1412;SDS011;701;52.526;13.408;2023-08-07T15:24:37;6.28;;;1.60;;